sensor_id;sensor_type;location;lat;lon;timestamp;temperature;humidity
16578;DHT22;8401;52.528;13.340;2023-03-14T00:00:08;13.20;99.90
16578;DHT22;8401;52.528;13.340;2023-03-14T00:02:35;13.20;99.90
16578;DHT22;8401;52.528;13.340;2023-03-14T00:05:01;13.20;99.90
16578;DHT22;8401;52.528;13.340;2023-03-14T00:07:32;13.20;99.90
16578;DHT22;8401;52.528;13.340;2023-03-14T00:10:01;13.10;99.90
16578;DHT22;8401;52.528;13.340;2023-03-14T00:12:27;13.00;99.90
16578;DHT22;8401;52.528;13.340;2023-03-14T00:14:53;13.00;99.90
16578;DHT22;8401;52.528;13.340;2023-03-14T00:17:18;13.00;99.90
16578;DHT22;8401;52.528;13.340;2023-03-14T00:19:44;13.00;99.90
16578;DHT22;8401;52.528;13.340;2023-03-14T00:22:10;13.00;99.90
16578;DHT22;8401;52.528;13.340;2023-03-14T00:24:35;13.00;99.90
16578;DHT22;8401;52.528;13.340;2023-03-14T00:27:01;13.00;99.90
16578;DHT22;8401;52.528;13.340;2023-03-14T00:29:26;13.00;99.90
16578;DHT22;8401;52.528;13.340;2023-03-14T00:31:52;12.90;99.90
16578;DHT22;8401;52.528;13.340;2023-03-14T00:34:18;12.90;99.90
16578;DHT22;8401;52.528;13.340;2023-03-14T00:36:44;12.80;99.90
16578;DHT22;8401;52.528;13.340;2023-03-14T00:39:10;12.80;99.90
16578;DHT22;8401;52.528;13.340;2023-03-14T00:41:36;12.80;99.90
16578;DHT22;8401;52.528;13.340;2023-03-14T00:44:01;12.80;99.90
16578;DHT22;8401;52.528;13.340;2023-03-14T00:46:27;12.70;99.90
16578;DHT22;8401;52.528;13.340;2023-03-14T00:48:53;12.70;99.90
16578;DHT22;8401;52.528;13.340;2023-03-14T00:51:18;12.60;99.90
16578;DHT22;8401;52.528;13.340;2023-03-14T00:53:44;12.60;99.90
16578;DHT22;8401;52.528;13.340;2023-03-14T00:56:12;12.50;99.90
16578;DHT22;8401;52.528;13.340;2023-03-14T00:58:37;12.50;99.90
16578;DHT22;8401;52.528;13.340;2023-03-14T01:01:08;12.50;99.90
16578;DHT22;8401;52.528;13.340;2023-03-14T01:03:35;12.60;99.90
16578;DHT22;8401;52.528;13.340;2023-03-14T01:06:12;12.50;99.90
16578;DHT22;8401;52.528;13.340;2023-03-14T01:08:38;12.50;99.90
16578;DHT22;8401;52.528;13.340;2023-03-14T01:11:08;12.50;99.90
16578;DHT22;8401;52.528;13.340;2023-03-14T01:13:34;12.50;99.90
16578;DHT22;8401;52.528;13.340;2023-03-14T01:16:05;12.40;99.90
16578;DHT22;8401;52.528;13.340;2023-03-14T01:18:33;12.30;99.90
16578;DHT22;8401;52.528;13.340;2023-03-14T01:21:01;12.20;99.90
16578;DHT22;8401;52.528;13.340;2023-03-14T01:23:26;12.20;99.90
16578;DHT22;8401;52.528;13.340;2023-03-14T01:25:52;12.20;99.90
16578;DHT22;8401;52.528;13.340;2023-03-14T01:28:18;12.10;99.90
16578;DHT22;8401;52.528;13.340;2023-03-14T01:30:43;12.10;99.90
16578;DHT22;8401;52.528;13.340;2023-03-14T01:33:09;12.10;99.90
16578;DHT22;8401;52.528;13.340;2023-03-14T01:35:34;12.00;99.90
16578;DHT22;8401;52.528;13.340;2023-03-14T01:38:00;12.00;99.90
16578;DHT22;8401;52.528;13.340;2023-03-14T01:40:26;12.00;99.90
16578;DHT22;8401;52.528;13.340;2023-03-14T01:43:05;12.00;99.90
16578;DHT22;8401;52.528;13.340;2023-03-14T01:48:54;12.10;99.90
16578;DHT22;8401;52.528;13.340;2023-03-14T01:51:27;12.10;99.90
16578;DHT22;8401;52.528;13.340;2023-03-14T01:53:57;12.10;99.90
16578;DHT22;8401;52.528;13.340;2023-03-14T01:56:24;12.10;99.90
16578;DHT22;8401;52.528;13.340;2023-03-14T01:58:51;12.10;99.90
16578;DHT22;8401;52.528;13.340;2023-03-14T02:01:20;12.10;99.90
16578;DHT22;8401;52.528;13.340;2023-03-14T02:04:00;12.00;99.90
16578;DHT22;8401;52.528;13.340;2023-03-14T02:06:32;12.10;99.90
16578;DHT22;8401;52.528;13.340;2023-03-14T02:09:00;12.10;99.90
16578;DHT22;8401;52.528;13.340;2023-03-14T02:11:28;12.00;99.90
16578;DHT22;8401;52.528;13.340;2023-03-14T02:13:56;12.10;99.90
16578;DHT22;8401;52.528;13.340;2023-03-14T02:16:23;12.10;99.90
16578;DHT22;8401;52.528;13.340;2023-03-14T02:18:49;12.00;99.90
16578;DHT22;8401;52.528;13.340;2023-03-14T02:29:31;11.90;99.90
16578;DHT22;8401;52.528;13.340;2023-03-14T02:31:59;11.90;99.90
16578;DHT22;8401;52.528;13.340;2023-03-14T02:34:24;11.80;99.90
16578;DHT22;8401;52.528;13.340;2023-03-14T02:36:51;11.80;99.90
16578;DHT22;8401;52.528;13.340;2023-03-14T02:39:26;11.70;99.90
16578;DHT22;8401;52.528;13.340;2023-03-14T02:41:53;11.80;99.90
16578;DHT22;8401;52.528;13.340;2023-03-14T02:44:18;11.80;99.90
16578;DHT22;8401;52.528;13.340;2023-03-14T02:46:44;11.90;99.90
16578;DHT22;8401;52.528;13.340;2023-03-14T02:49:14;11.80;99.90
16578;DHT22;8401;52.528;13.340;2023-03-14T02:51:40;12.00;99.90
16578;DHT22;8401;52.528;13.340;2023-03-14T02:54:07;12.00;99.90
16578;DHT22;8401;52.528;13.340;2023-03-14T02:56:33;11.90;99.90
16578;DHT22;8401;52.528;13.340;2023-03-14T02:58:59;11.80;99.90
16578;DHT22;8401;52.528;13.340;2023-03-14T03:01:27;11.80;99.90
16578;DHT22;8401;52.528;13.340;2023-03-14T03:03:53;11.90;99.90
16578;DHT22;8401;52.528;13.340;2023-03-14T03:06:19;11.90;99.90
16578;DHT22;8401;52.528;13.340;2023-03-14T03:08:44;11.90;99.90
16578;DHT22;8401;52.528;13.340;2023-03-14T03:11:10;11.90;99.90
16578;DHT22;8401;52.528;13.340;2023-03-14T03:13:36;11.90;99.90
16578;DHT22;8401;52.528;13.340;2023-03-14T03:16:02;11.90;99.90
16578;DHT22;8401;52.528;13.340;2023-03-14T03:18:28;11.90;99.90
16578;DHT22;8401;52.528;13.340;2023-03-14T03:20:53;11.80;99.90
16578;DHT22;8401;52.528;13.340;2023-03-14T03:23:19;11.70;99.90
16578;DHT22;8401;52.528;13.340;2023-03-14T03:25:51;11.60;99.90
16578;DHT22;8401;52.528;13.340;2023-03-14T03:28:17;11.50;99.90
16578;DHT22;8401;52.528;13.340;2023-03-14T03:30:44;11.50;99.90
16578;DHT22;8401;52.528;13.340;2023-03-14T03:33:10;11.50;99.90
16578;DHT22;8401;52.528;13.340;2023-03-14T03:35:45;11.60;99.90
16578;DHT22;8401;52.528;13.340;2023-03-14T03:38:12;11.50;99.90
16578;DHT22;8401;52.528;13.340;2023-03-14T03:40:37;11.60;99.90
16578;DHT22;8401;52.528;13.340;2023-03-14T03:43:03;11.60;99.90
16578;DHT22;8401;52.528;13.340;2023-03-14T03:45:29;11.50;99.90
16578;DHT22;8401;52.528;13.340;2023-03-14T03:47:55;11.50;99.90
16578;DHT22;8401;52.528;13.340;2023-03-14T03:50:22;11.70;99.90
16578;DHT22;8401;52.528;13.340;2023-03-14T03:52:47;11.70;99.90
16578;DHT22;8401;52.528;13.340;2023-03-14T03:55:13;11.60;99.90
16578;DHT22;8401;52.528;13.340;2023-03-14T03:57:38;11.50;99.90
16578;DHT22;8401;52.528;13.340;2023-03-14T04:00:05;11.60;99.90
16578;DHT22;8401;52.528;13.340;2023-03-14T04:02:31;11.60;99.90
16578;DHT22;8401;52.528;13.340;2023-03-14T04:04:57;11.60;99.90
16578;DHT22;8401;52.528;13.340;2023-03-14T04:07:22;11.50;99.90
16578;DHT22;8401;52.528;13.340;2023-03-14T04:09:48;11.50;99.90
16578;DHT22;8401;52.528;13.340;2023-03-14T04:12:13;11.60;99.90
16578;DHT22;8401;52.528;13.340;2023-03-14T04:14:39;11.60;99.90
16578;DHT22;8401;52.528;13.340;2023-03-14T04:17:06;11.60;99.90
16578;DHT22;8401;52.528;13.340;2023-03-14T04:19:32;11.50;99.90
16578;DHT22;8401;52.528;13.340;2023-03-14T04:21:58;11.50;99.90
16578;DHT22;8401;52.528;13.340;2023-03-14T04:24:23;11.50;99.90
16578;DHT22;8401;52.528;13.340;2023-03-14T04:26:50;11.60;99.90
16578;DHT22;8401;52.528;13.340;2023-03-14T04:29:16;11.60;99.90
16578;DHT22;8401;52.528;13.340;2023-03-14T04:31:41;11.60;99.90
16578;DHT22;8401;52.528;13.340;2023-03-14T04:34:07;11.60;99.90
16578;DHT22;8401;52.528;13.340;2023-03-14T04:36:33;11.50;99.90
16578;DHT22;8401;52.528;13.340;2023-03-14T04:38:59;11.60;99.90
16578;DHT22;8401;52.528;13.340;2023-03-14T04:41:24;11.50;99.90
16578;DHT22;8401;52.528;13.340;2023-03-14T04:43:50;11.60;99.90
16578;DHT22;8401;52.528;13.340;2023-03-14T04:46:16;11.60;99.90
16578;DHT22;8401;52.528;13.340;2023-03-14T04:48:41;11.70;99.90
16578;DHT22;8401;52.528;13.340;2023-03-14T04:51:07;11.60;99.90
16578;DHT22;8401;52.528;13.340;2023-03-14T04:53:32;11.70;99.90
16578;DHT22;8401;52.528;13.340;2023-03-14T04:55:59;11.70;99.90
16578;DHT22;8401;52.528;13.340;2023-03-14T04:58:25;11.60;99.90
16578;DHT22;8401;52.528;13.340;2023-03-14T05:00:51;11.60;99.90
16578;DHT22;8401;52.528;13.340;2023-03-14T05:03:17;11.50;99.90
16578;DHT22;8401;52.528;13.340;2023-03-14T05:05:43;11.50;99.90
16578;DHT22;8401;52.528;13.340;2023-03-14T05:08:09;11.50;99.90
16578;DHT22;8401;52.528;13.340;2023-03-14T05:10:35;11.60;99.90
16578;DHT22;8401;52.528;13.340;2023-03-14T05:13:01;11.60;99.90
16578;DHT22;8401;52.528;13.340;2023-03-14T05:15:27;11.50;99.90
16578;DHT22;8401;52.528;13.340;2023-03-14T05:17:53;11.60;99.90
16578;DHT22;8401;52.528;13.340;2023-03-14T05:20:20;11.60;99.90
16578;DHT22;8401;52.528;13.340;2023-03-14T05:22:48;11.60;99.90
16578;DHT22;8401;52.528;13.340;2023-03-14T05:25:14;11.60;99.90
16578;DHT22;8401;52.528;13.340;2023-03-14T05:27:39;11.60;99.90
16578;DHT22;8401;52.528;13.340;2023-03-14T05:30:06;11.50;99.90
16578;DHT22;8401;52.528;13.340;2023-03-14T05:32:31;11.60;99.90
16578;DHT22;8401;52.528;13.340;2023-03-14T05:34:57;11.60;99.90
16578;DHT22;8401;52.528;13.340;2023-03-14T05:37:25;11.60;99.90
16578;DHT22;8401;52.528;13.340;2023-03-14T05:39:51;11.60;99.90
16578;DHT22;8401;52.528;13.340;2023-03-14T05:42:17;11.60;99.90
16578;DHT22;8401;52.528;13.340;2023-03-14T05:44:42;11.60;99.90
16578;DHT22;8401;52.528;13.340;2023-03-14T05:47:08;11.60;99.90
16578;DHT22;8401;52.528;13.340;2023-03-14T05:49:34;11.50;99.90
16578;DHT22;8401;52.528;13.340;2023-03-14T05:51:59;11.50;99.90
16578;DHT22;8401;52.528;13.340;2023-03-14T05:54:25;11.60;99.90
16578;DHT22;8401;52.528;13.340;2023-03-14T05:56:51;11.70;99.90
16578;DHT22;8401;52.528;13.340;2023-03-14T05:59:16;11.70;99.90
16578;DHT22;8401;52.528;13.340;2023-03-14T06:01:42;11.70;99.90
16578;DHT22;8401;52.528;13.340;2023-03-14T06:04:07;11.60;99.90
16578;DHT22;8401;52.528;13.340;2023-03-14T06:06:33;11.60;99.90
16578;DHT22;8401;52.528;13.340;2023-03-14T06:08:59;11.70;99.90
16578;DHT22;8401;52.528;13.340;2023-03-14T06:11:25;11.60;99.90
16578;DHT22;8401;52.528;13.340;2023-03-14T06:13:51;11.60;99.90
16578;DHT22;8401;52.528;13.340;2023-03-14T06:16:17;11.70;99.90
16578;DHT22;8401;52.528;13.340;2023-03-14T06:18:42;11.70;99.90
16578;DHT22;8401;52.528;13.340;2023-03-14T06:21:08;11.70;99.90
16578;DHT22;8401;52.528;13.340;2023-03-14T06:23:34;11.70;99.90
16578;DHT22;8401;52.528;13.340;2023-03-14T06:25:59;11.70;99.90
16578;DHT22;8401;52.528;13.340;2023-03-14T06:28:25;11.70;99.90
16578;DHT22;8401;52.528;13.340;2023-03-14T06:30:51;11.70;99.90
16578;DHT22;8401;52.528;13.340;2023-03-14T06:33:19;11.80;99.90
16578;DHT22;8401;52.528;13.340;2023-03-14T06:35:47;11.90;99.90
16578;DHT22;8401;52.528;13.340;2023-03-14T06:38:13;11.80;99.90
16578;DHT22;8401;52.528;13.340;2023-03-14T06:40:39;11.80;99.90
16578;DHT22;8401;52.528;13.340;2023-03-14T06:43:04;11.90;99.90
16578;DHT22;8401;52.528;13.340;2023-03-14T06:45:30;12.00;99.90
16578;DHT22;8401;52.528;13.340;2023-03-14T06:47:55;12.00;99.90
16578;DHT22;8401;52.528;13.340;2023-03-14T06:50:21;12.10;99.90
16578;DHT22;8401;52.528;13.340;2023-03-14T06:52:48;12.10;99.90
16578;DHT22;8401;52.528;13.340;2023-03-14T06:55:15;12.10;99.90
16578;DHT22;8401;52.528;13.340;2023-03-14T06:57:41;12.20;99.90
16578;DHT22;8401;52.528;13.340;2023-03-14T07:00:07;12.20;99.90
16578;DHT22;8401;52.528;13.340;2023-03-14T07:02:33;12.20;99.90
16578;DHT22;8401;52.528;13.340;2023-03-14T07:04:59;12.30;99.90
16578;DHT22;8401;52.528;13.340;2023-03-14T07:07:26;12.30;99.90
16578;DHT22;8401;52.528;13.340;2023-03-14T07:09:52;12.30;99.90
16578;DHT22;8401;52.528;13.340;2023-03-14T07:12:17;12.40;99.90
16578;DHT22;8401;52.528;13.340;2023-03-14T07:14:43;12.50;99.90
16578;DHT22;8401;52.528;13.340;2023-03-14T07:17:09;12.50;99.90
16578;DHT22;8401;52.528;13.340;2023-03-14T07:19:35;12.40;99.90
16578;DHT22;8401;52.528;13.340;2023-03-14T07:22:00;12.40;99.90
16578;DHT22;8401;52.528;13.340;2023-03-14T07:24:26;12.30;99.90
16578;DHT22;8401;52.528;13.340;2023-03-14T07:26:52;12.30;99.90
16578;DHT22;8401;52.528;13.340;2023-03-14T07:29:18;12.30;99.90
16578;DHT22;8401;52.528;13.340;2023-03-14T07:31:43;12.30;99.90
16578;DHT22;8401;52.528;13.340;2023-03-14T07:34:09;12.30;99.90
16578;DHT22;8401;52.528;13.340;2023-03-14T07:36:35;12.30;99.90
16578;DHT22;8401;52.528;13.340;2023-03-14T07:39:00;12.40;99.90
16578;DHT22;8401;52.528;13.340;2023-03-14T07:41:26;12.40;99.90
16578;DHT22;8401;52.528;13.340;2023-03-14T07:43:52;12.30;99.90
16578;DHT22;8401;52.528;13.340;2023-03-14T07:46:18;12.30;99.90
16578;DHT22;8401;52.528;13.340;2023-03-14T07:48:44;12.20;99.90
16578;DHT22;8401;52.528;13.340;2023-03-14T07:51:10;12.10;99.90
16578;DHT22;8401;52.528;13.340;2023-03-14T07:53:35;12.30;99.90
16578;DHT22;8401;52.528;13.340;2023-03-14T07:56:01;12.20;99.90
16578;DHT22;8401;52.528;13.340;2023-03-14T07:58:26;12.30;99.90
16578;DHT22;8401;52.528;13.340;2023-03-14T08:00:52;12.40;99.90
16578;DHT22;8401;52.528;13.340;2023-03-14T08:03:18;12.60;99.90
16578;DHT22;8401;52.528;13.340;2023-03-14T08:05:47;12.80;99.90
16578;DHT22;8401;52.528;13.340;2023-03-14T08:08:13;13.00;99.90
16578;DHT22;8401;52.528;13.340;2023-03-14T08:10:39;13.20;99.90
16578;DHT22;8401;52.528;13.340;2023-03-14T08:13:05;13.20;99.90
16578;DHT22;8401;52.528;13.340;2023-03-14T08:15:31;13.10;99.90
16578;DHT22;8401;52.528;13.340;2023-03-14T08:17:57;13.20;99.90
16578;DHT22;8401;52.528;13.340;2023-03-14T08:20:25;13.20;99.90
16578;DHT22;8401;52.528;13.340;2023-03-14T08:22:51;13.20;99.90
16578;DHT22;8401;52.528;13.340;2023-03-14T08:25:17;13.20;99.90
16578;DHT22;8401;52.528;13.340;2023-03-14T08:27:43;13.20;99.90
16578;DHT22;8401;52.528;13.340;2023-03-14T08:30:11;13.30;99.90
16578;DHT22;8401;52.528;13.340;2023-03-14T08:32:37;13.30;99.90
16578;DHT22;8401;52.528;13.340;2023-03-14T08:35:05;13.40;99.90
16578;DHT22;8401;52.528;13.340;2023-03-14T08:37:32;13.50;99.90
16578;DHT22;8401;52.528;13.340;2023-03-14T08:39:57;13.40;99.90
16578;DHT22;8401;52.528;13.340;2023-03-14T08:42:23;13.40;99.90
16578;DHT22;8401;52.528;13.340;2023-03-14T08:44:51;13.40;99.90
16578;DHT22;8401;52.528;13.340;2023-03-14T08:47:16;13.40;99.90
16578;DHT22;8401;52.528;13.340;2023-03-14T08:49:42;13.20;99.90
16578;DHT22;8401;52.528;13.340;2023-03-14T08:52:07;13.10;99.90
16578;DHT22;8401;52.528;13.340;2023-03-14T08:54:33;13.10;99.90
16578;DHT22;8401;52.528;13.340;2023-03-14T08:56:59;13.10;99.90
16578;DHT22;8401;52.528;13.340;2023-03-14T08:59:24;13.00;99.90
16578;DHT22;8401;52.528;13.340;2023-03-14T09:01:50;12.90;99.90
16578;DHT22;8401;52.528;13.340;2023-03-14T09:04:16;12.90;99.90
16578;DHT22;8401;52.528;13.340;2023-03-14T09:06:42;12.90;99.90
16578;DHT22;8401;52.528;13.340;2023-03-14T09:09:08;12.90;99.90
16578;DHT22;8401;52.528;13.340;2023-03-14T09:11:34;12.90;99.90
16578;DHT22;8401;52.528;13.340;2023-03-14T09:13:59;13.20;99.90
16578;DHT22;8401;52.528;13.340;2023-03-14T09:16:25;13.40;99.90
16578;DHT22;8401;52.528;13.340;2023-03-14T09:18:51;13.70;99.90
16578;DHT22;8401;52.528;13.340;2023-03-14T09:21:23;14.60;99.90
16578;DHT22;8401;52.528;13.340;2023-03-14T09:23:48;16.40;99.90
16578;DHT22;8401;52.528;13.340;2023-03-14T09:26:15;18.40;99.90
16578;DHT22;8401;52.528;13.340;2023-03-14T09:28:40;20.30;99.90
16578;DHT22;8401;52.528;13.340;2023-03-14T09:31:07;20.90;99.90
16578;DHT22;8401;52.528;13.340;2023-03-14T09:33:34;21.00;99.90
16578;DHT22;8401;52.528;13.340;2023-03-14T09:35:59;21.90;99.90
16578;DHT22;8401;52.528;13.340;2023-03-14T09:38:25;22.60;99.90
16578;DHT22;8401;52.528;13.340;2023-03-14T09:40:53;22.00;99.90
16578;DHT22;8401;52.528;13.340;2023-03-14T09:43:19;20.80;99.90
16578;DHT22;8401;52.528;13.340;2023-03-14T09:45:48;19.90;99.90
16578;DHT22;8401;52.528;13.340;2023-03-14T09:48:24;18.70;99.90
16578;DHT22;8401;52.528;13.340;2023-03-14T09:50:54;17.50;99.90
16578;DHT22;8401;52.528;13.340;2023-03-14T09:53:41;16.40;99.90
16578;DHT22;8401;52.528;13.340;2023-03-14T09:58:48;15.80;99.90
16578;DHT22;8401;52.528;13.340;2023-03-14T10:01:19;15.20;99.90
16578;DHT22;8401;52.528;13.340;2023-03-14T10:03:47;15.30;99.90
16578;DHT22;8401;52.528;13.340;2023-03-14T10:06:14;14.90;99.90
16578;DHT22;8401;52.528;13.340;2023-03-14T10:08:41;14.90;99.90
16578;DHT22;8401;52.528;13.340;2023-03-14T10:11:14;14.90;99.90
16578;DHT22;8401;52.528;13.340;2023-03-14T10:14:06;14.90;99.90
16578;DHT22;8401;52.528;13.340;2023-03-14T10:16:40;14.90;99.90
16578;DHT22;8401;52.528;13.340;2023-03-14T10:19:10;14.80;99.90
16578;DHT22;8401;52.528;13.340;2023-03-14T10:21:41;14.80;99.90
16578;DHT22;8401;52.528;13.340;2023-03-14T10:24:22;14.50;99.90
16578;DHT22;8401;52.528;13.340;2023-03-14T10:26:57;14.60;99.90
16578;DHT22;8401;52.528;13.340;2023-03-14T10:29:23;14.50;99.90
16578;DHT22;8401;52.528;13.340;2023-03-14T10:32:18;14.40;99.90
16578;DHT22;8401;52.528;13.340;2023-03-14T10:34:44;14.40;99.90
16578;DHT22;8401;52.528;13.340;2023-03-14T10:37:24;14.60;99.90
16578;DHT22;8401;52.528;13.340;2023-03-14T10:40:03;14.40;99.90
16578;DHT22;8401;52.528;13.340;2023-03-14T10:42:33;14.30;99.90
16578;DHT22;8401;52.528;13.340;2023-03-14T10:47:51;14.20;99.90
16578;DHT22;8401;52.528;13.340;2023-03-14T10:50:29;14.20;99.90
16578;DHT22;8401;52.528;13.340;2023-03-14T10:52:56;14.10;99.90
16578;DHT22;8401;52.528;13.340;2023-03-14T10:55:24;14.40;99.90
16578;DHT22;8401;52.528;13.340;2023-03-14T10:57:51;14.30;99.90
16578;DHT22;8401;52.528;13.340;2023-03-14T11:00:20;14.30;99.90
16578;DHT22;8401;52.528;13.340;2023-03-14T11:08:37;14.20;99.90
16578;DHT22;8401;52.528;13.340;2023-03-14T11:11:18;14.30;99.90
16578;DHT22;8401;52.528;13.340;2023-03-14T11:19:50;14.30;99.90
16578;DHT22;8401;52.528;13.340;2023-03-14T11:22:41;14.20;99.90
16578;DHT22;8401;52.528;13.340;2023-03-14T11:28:40;14.30;99.90
16578;DHT22;8401;52.528;13.340;2023-03-14T11:30:55;14.30;99.90
16578;DHT22;8401;52.528;13.340;2023-03-14T11:37:16;14.30;99.90
16578;DHT22;8401;52.528;13.340;2023-03-14T11:39:19;14.40;99.90
16578;DHT22;8401;52.528;13.340;2023-03-14T11:41:52;14.50;99.90
16578;DHT22;8401;52.528;13.340;2023-03-14T11:44:32;14.40;99.90
16578;DHT22;8401;52.528;13.340;2023-03-14T11:47:15;14.40;99.90
16578;DHT22;8401;52.528;13.340;2023-03-14T11:52:51;14.40;99.90
16578;DHT22;8401;52.528;13.340;2023-03-14T11:55:21;14.50;99.90
16578;DHT22;8401;52.528;13.340;2023-03-14T11:57:51;14.50;99.90
16578;DHT22;8401;52.528;13.340;2023-03-14T12:00:23;14.50;99.90
16578;DHT22;8401;52.528;13.340;2023-03-14T12:02:59;14.50;99.90
16578;DHT22;8401;52.528;13.340;2023-03-14T12:10:53;14.60;99.90
16578;DHT22;8401;52.528;13.340;2023-03-14T12:13:20;14.50;99.90
16578;DHT22;8401;52.528;13.340;2023-03-14T12:15:54;14.60;99.90
16578;DHT22;8401;52.528;13.340;2023-03-14T12:18:36;14.50;99.90
16578;DHT22;8401;52.528;13.340;2023-03-14T12:21:09;14.70;99.90
16578;DHT22;8401;52.528;13.340;2023-03-14T12:23:55;14.50;99.90
16578;DHT22;8401;52.528;13.340;2023-03-14T12:26:24;14.20;99.90
16578;DHT22;8401;52.528;13.340;2023-03-14T12:28:52;14.30;99.90
16578;DHT22;8401;52.528;13.340;2023-03-14T12:31:42;14.60;99.90
16578;DHT22;8401;52.528;13.340;2023-03-14T12:41:51;14.60;99.90
16578;DHT22;8401;52.528;13.340;2023-03-14T12:46:57;14.80;99.90
16578;DHT22;8401;52.528;13.340;2023-03-14T12:49:29;14.60;99.90
16578;DHT22;8401;52.528;13.340;2023-03-14T12:52:02;14.70;99.90
16578;DHT22;8401;52.528;13.340;2023-03-14T12:57:13;14.90;99.90
16578;DHT22;8401;52.528;13.340;2023-03-14T12:59:51;14.80;99.90
16578;DHT22;8401;52.528;13.340;2023-03-14T13:02:21;14.70;99.90
16578;DHT22;8401;52.528;13.340;2023-03-14T13:04:52;14.40;99.90
16578;DHT22;8401;52.528;13.340;2023-03-14T13:12:40;13.40;99.90
16578;DHT22;8401;52.528;13.340;2023-03-14T13:15:49;13.60;99.90
16578;DHT22;8401;52.528;13.340;2023-03-14T13:18:35;13.50;99.90
16578;DHT22;8401;52.528;13.340;2023-03-14T13:23:31;13.20;99.90
16578;DHT22;8401;52.528;13.340;2023-03-14T13:25:59;13.20;99.90
16578;DHT22;8401;52.528;13.340;2023-03-14T13:28:26;13.00;99.90
16578;DHT22;8401;52.528;13.340;2023-03-14T13:30:58;13.10;99.90
16578;DHT22;8401;52.528;13.340;2023-03-14T13:33:24;13.50;99.90
16578;DHT22;8401;52.528;13.340;2023-03-14T13:38:24;13.90;99.90
16578;DHT22;8401;52.528;13.340;2023-03-14T13:40:51;14.00;99.90
16578;DHT22;8401;52.528;13.340;2023-03-14T13:43:26;14.20;99.90
16578;DHT22;8401;52.528;13.340;2023-03-14T13:46:16;14.40;99.90
16578;DHT22;8401;52.528;13.340;2023-03-14T13:49:04;14.60;99.90
16578;DHT22;8401;52.528;13.340;2023-03-14T13:51:31;14.60;99.90
16578;DHT22;8401;52.528;13.340;2023-03-14T13:54:01;14.80;99.90
16578;DHT22;8401;52.528;13.340;2023-03-14T13:56:31;14.90;99.90
16578;DHT22;8401;52.528;13.340;2023-03-14T13:58:58;14.90;99.90
16578;DHT22;8401;52.528;13.340;2023-03-14T14:03:54;15.20;99.90
16578;DHT22;8401;52.528;13.340;2023-03-14T14:06:35;15.20;99.90
16578;DHT22;8401;52.528;13.340;2023-03-14T14:09:10;15.10;99.90
16578;DHT22;8401;52.528;13.340;2023-03-14T14:11:43;15.00;99.90
16578;DHT22;8401;52.528;13.340;2023-03-14T14:14:17;15.00;99.90
16578;DHT22;8401;52.528;13.340;2023-03-14T14:16:45;15.10;99.90
16578;DHT22;8401;52.528;13.340;2023-03-14T14:19:13;15.20;99.90
16578;DHT22;8401;52.528;13.340;2023-03-14T14:21:39;15.00;99.90
16578;DHT22;8401;52.528;13.340;2023-03-14T14:24:05;14.70;99.90
16578;DHT22;8401;52.528;13.340;2023-03-14T14:26:31;14.70;99.90
16578;DHT22;8401;52.528;13.340;2023-03-14T14:29:05;14.80;99.90
16578;DHT22;8401;52.528;13.340;2023-03-14T14:31:31;14.80;99.90
16578;DHT22;8401;52.528;13.340;2023-03-14T14:34:00;14.70;99.90
16578;DHT22;8401;52.528;13.340;2023-03-14T14:38:58;14.40;99.90
16578;DHT22;8401;52.528;13.340;2023-03-14T14:41:35;14.40;99.90
16578;DHT22;8401;52.528;13.340;2023-03-14T14:44:03;14.30;99.90
16578;DHT22;8401;52.528;13.340;2023-03-14T14:46:31;14.50;99.90
16578;DHT22;8401;52.528;13.340;2023-03-14T14:49:03;14.50;99.90
16578;DHT22;8401;52.528;13.340;2023-03-14T14:51:38;14.40;99.90
16578;DHT22;8401;52.528;13.340;2023-03-14T14:54:19;14.40;99.90
16578;DHT22;8401;52.528;13.340;2023-03-14T14:56:51;14.30;99.90
16578;DHT22;8401;52.528;13.340;2023-03-14T14:59:27;14.30;99.90
16578;DHT22;8401;52.528;13.340;2023-03-14T15:02:02;14.30;99.90
16578;DHT22;8401;52.528;13.340;2023-03-14T15:04:31;14.30;99.90
16578;DHT22;8401;52.528;13.340;2023-03-14T15:06:57;14.20;99.90
16578;DHT22;8401;52.528;13.340;2023-03-14T15:09:23;14.30;99.90
16578;DHT22;8401;52.528;13.340;2023-03-14T15:11:50;14.20;99.90
16578;DHT22;8401;52.528;13.340;2023-03-14T15:14:16;14.20;99.90
16578;DHT22;8401;52.528;13.340;2023-03-14T15:16:41;14.00;99.90
16578;DHT22;8401;52.528;13.340;2023-03-14T15:19:26;12.30;99.90
16578;DHT22;8401;52.528;13.340;2023-03-14T15:21:53;10.80;99.90
16578;DHT22;8401;52.528;13.340;2023-03-14T15:24:18;10.00;99.90
16578;DHT22;8401;52.528;13.340;2023-03-14T15:26:44;9.10;99.90
16578;DHT22;8401;52.528;13.340;2023-03-14T15:29:11;8.40;99.90
16578;DHT22;8401;52.528;13.340;2023-03-14T15:31:38;8.10;99.90
16578;DHT22;8401;52.528;13.340;2023-03-14T15:34:04;7.40;99.90
16578;DHT22;8401;52.528;13.340;2023-03-14T15:36:32;7.20;99.90
16578;DHT22;8401;52.528;13.340;2023-03-14T15:38:59;7.00;99.90
16578;DHT22;8401;52.528;13.340;2023-03-14T15:41:26;6.70;99.90
16578;DHT22;8401;52.528;13.340;2023-03-14T15:43:52;6.60;99.90
16578;DHT22;8401;52.528;13.340;2023-03-14T15:46:18;6.40;99.90
16578;DHT22;8401;52.528;13.340;2023-03-14T15:48:45;6.40;99.90
16578;DHT22;8401;52.528;13.340;2023-03-14T15:51:11;5.90;99.90
16578;DHT22;8401;52.528;13.340;2023-03-14T15:53:37;5.80;99.90
16578;DHT22;8401;52.528;13.340;2023-03-14T15:56:05;5.80;99.90
16578;DHT22;8401;52.528;13.340;2023-03-14T15:58:34;5.80;99.90
16578;DHT22;8401;52.528;13.340;2023-03-14T16:01:01;5.60;99.90
16578;DHT22;8401;52.528;13.340;2023-03-14T16:03:27;5.40;99.90
16578;DHT22;8401;52.528;13.340;2023-03-14T16:05:53;5.20;99.90
16578;DHT22;8401;52.528;13.340;2023-03-14T16:08:19;5.10;99.90
16578;DHT22;8401;52.528;13.340;2023-03-14T16:10:45;5.10;99.90
16578;DHT22;8401;52.528;13.340;2023-03-14T16:13:11;4.80;99.90
16578;DHT22;8401;52.528;13.340;2023-03-14T16:15:37;4.50;99.90
16578;DHT22;8401;52.528;13.340;2023-03-14T16:18:02;4.50;99.90
16578;DHT22;8401;52.528;13.340;2023-03-14T16:20:28;4.20;99.90
16578;DHT22;8401;52.528;13.340;2023-03-14T16:22:54;4.00;99.90
16578;DHT22;8401;52.528;13.340;2023-03-14T16:25:20;3.90;99.90
16578;DHT22;8401;52.528;13.340;2023-03-14T16:27:46;3.70;99.90
16578;DHT22;8401;52.528;13.340;2023-03-14T16:30:13;3.60;99.90
16578;DHT22;8401;52.528;13.340;2023-03-14T16:32:38;3.50;99.90
16578;DHT22;8401;52.528;13.340;2023-03-14T16:35:05;3.60;99.90
16578;DHT22;8401;52.528;13.340;2023-03-14T16:37:31;3.30;99.90
16578;DHT22;8401;52.528;13.340;2023-03-14T16:39:57;3.10;99.90
16578;DHT22;8401;52.528;13.340;2023-03-14T16:42:23;3.00;99.90
16578;DHT22;8401;52.528;13.340;2023-03-14T16:44:48;2.90;99.90
16578;DHT22;8401;52.528;13.340;2023-03-14T16:47:14;3.00;99.90
16578;DHT22;8401;52.528;13.340;2023-03-14T16:49:40;3.00;99.90